Time;durP1;ratioP1;P1;durP2;ratioP2;P2;SDS_P1;SDS_P2;PMS_P1;PMS_P2;Temp;Humidity;BMP_temperature;BMP_pressure;BME280_temperature;BME280_humidity;BME280_pressure;Samples;Min_cycle;Max_cycle;Signal;HPM_P1;HPM_P2
2022/11/16 00:01:20;;;;;;;4.65;3.10;;;;;;;;;;5062693;28;20032;-84
2022/11/16 00:03:47;;;;;;;4.00;3.00;;;;;;;;;;5062387;28;20027;-84
2022/11/16 00:06:12;;;;;;;6.95;2.83;;;;;;;;;;5062516;28;20027;-84
2022/11/16 00:08:40;;;;;;;3.63;2.80;;;;;;;;;;5062479;28;20085;-84
2022/11/16 00:11:12;;;;;;;3.38;2.67;;;;;;;;;;5062499;28;20032;-85
2022/11/16 00:13:38;;;;;;;4.30;3.03;;;;;;;;;;5062650;28;20036;-84
2022/11/16 00:16:04;;;;;;;3.03;2.50;;;;;;;;;;5067419;27;20477;-84
2022/11/16 00:18:30;;;;;;;4.50;2.97;;;;;;;;;;5099492;27;20019;-84
2022/11/16 00:20:56;;;;;;;4.72;2.90;;;;;;;;;;5082472;27;20044;-84
2022/11/16 00:23:22;;;;;;;4.40;3.20;;;;;;;;;;5061306;28;20040;-84
2022/11/16 00:25:47;;;;;;;3.40;2.30;;;;;;;;;;5075575;28;20040;-84
2022/11/16 00:28:13;;;;;;;3.75;2.60;;;;;;;;;;5058476;28;20020;-84
2022/11/16 00:30:38;;;;;;;2.90;2.50;;;;;;;;;;5058749;28;20138;-84
2022/11/16 00:33:04;;;;;;;3.53;2.60;;;;;;;;;;5075078;28;20024;-83
2022/11/16 00:35:30;;;;;;;4.03;2.33;;;;;;;;;;5041964;28;20039;-84
2022/11/16 00:37:55;;;;;;;2.65;2.20;;;;;;;;;;5058451;28;20401;-84
2022/11/16 00:40:21;;;;;;;4.13;2.42;;;;;;;;;;5074809;28;20051;-84
2022/11/16 00:42:46;;;;;;;3.88;2.72;;;;;;;;;;5041888;28;20432;-83
2022/11/16 00:45:12;;;;;;;3.33;2.47;;;;;;;;;;5074837;28;20046;-84
2022/11/16 00:47:37;;;;;;;3.03;2.00;;;;;;;;;;5075277;28;20063;-84
2022/11/16 00:50:03;;;;;;;3.05;2.22;;;;;;;;;;5074837;28;20062;-83
2022/11/16 00:52:29;;;;;;;3.97;2.67;;;;;;;;;;5058547;28;20398;-84
2022/11/16 00:54:54;;;;;;;3.58;2.22;;;;;;;;;;5060940;28;20499;-84
2022/11/16 00:57:21;;;;;;;3.10;1.95;;;;;;;;;;5061710;28;20381;-84
2022/11/16 00:59:47;;;;;;;3.72;2.78;;;;;;;;;;5057008;28;20028;-84
2022/11/16 01:02:14;;;;;;;2.95;1.90;;;;;;;;;;5041446;28;20061;-84
2022/11/16 01:04:39;;;;;;;3.60;2.40;;;;;;;;;;5057547;28;20036;-85
2022/11/16 01:07:05;;;;;;;2.75;1.90;;;;;;;;;;5040955;28;20028;-85
2022/11/16 01:09:30;;;;;;;3.70;2.22;;;;;;;;;;5057431;28;20035;-85
2022/11/16 01:12:07;;;;;;;3.72;2.00;;;;;;;;;;5057552;28;20111;-85
2022/11/16 01:14:34;;;;;;;2.85;2.00;;;;;;;;;;5046976;28;20024;-85
2022/11/16 01:17:00;;;;;;;3.33;2.20;;;;;;;;;;5093876;28;20028;-85
2022/11/16 01:19:26;;;;;;;2.88;2.08;;;;;;;;;;5060498;28;20078;-84
2022/11/16 01:21:52;;;;;;;3.00;2.05;;;;;;;;;;5078064;28;20396;-84
2022/11/16 01:24:18;;;;;;;3.13;2.00;;;;;;;;;;5060929;28;20061;-84
2022/11/16 01:26:43;;;;;;;2.78;1.90;;;;;;;;;;5061240;28;20034;-84
2022/11/16 01:29:10;;;;;;;2.40;1.80;;;;;;;;;;5094516;28;20404;-85
2022/11/16 01:31:36;;;;;;;3.17;2.22;;;;;;;;;;5077528;28;20031;-84
2022/11/16 01:34:03;;;;;;;3.42;1.98;;;;;;;;;;5077256;28;20089;-84
2022/11/16 01:36:28;;;;;;;3.78;1.88;;;;;;;;;;5077147;28;20047;-84
2022/11/16 01:38:53;;;;;;;3.15;1.95;;;;;;;;;;5060769;28;20389;-84
2022/11/16 01:41:23;;;;;;;3.05;2.15;;;;;;;;;;5077315;28;20035;-84
2022/11/16 01:43:58;;;;;;;2.88;1.90;;;;;;;;;;5060953;28;20050;-84
2022/11/16 01:46:25;;;;;;;3.88;2.45;;;;;;;;;;5077353;28;20067;-85
2022/11/16 01:49:04;;;;;;;2.45;1.65;;;;;;;;;;5077770;28;20054;-85
2022/11/16 01:51:30;;;;;;;1.85;1.40;;;;;;;;;;5077492;28;20084;-85
2022/11/16 01:53:57;;;;;;;2.45;1.70;;;;;;;;;;5060782;28;20032;-85
2022/11/16 01:56:23;;;;;;;1.95;1.52;;;;;;;;;;5060563;28;20030;-85
2022/11/16 01:58:49;;;;;;;2.90;2.13;;;;;;;;;;5077031;28;20031;-85
2022/11/16 02:01:15;;;;;;;2.65;1.80;;;;;;;;;;5060955;28;20024;-85
2022/11/16 02:03:41;;;;;;;3.25;1.98;;;;;;;;;;5077141;28;20035;-86
2022/11/16 02:06:26;;;;;;;3.22;1.70;;;;;;;;;;5060406;28;20024;-86
2022/11/16 02:12:01;;;;;;;2.42;1.55;;;;;;;;;;5110412;28;20055;-85
2022/11/16 02:14:58;;;;;;;2.42;1.52;;;;;;;;;;5093600;28;20061;-84
2022/11/16 02:17:43;;;;;;;2.83;1.92;;;;;;;;;;5077580;28;20114;-85
2022/11/16 02:20:30;;;;;;;2.40;1.58;;;;;;;;;;5052802;28;20047;-85
2022/11/16 02:23:33;;;;;;;3.88;2.00;;;;;;;;;;5057885;28;20028;-86
2022/11/16 02:26:12;;;;;;;2.67;1.90;;;;;;;;;;5073509;28;20040;-84
2022/11/16 02:28:43;;;;;;;2.45;1.58;;;;;;;;;;5041321;28;20504;-84
2022/11/16 02:31:13;;;;;;;2.85;1.88;;;;;;;;;;5073618;28;20038;-83
2022/11/16 02:33:39;;;;;;;2.00;1.33;;;;;;;;;;5040068;28;20038;-83
2022/11/16 02:36:05;;;;;;;2.45;1.50;;;;;;;;;;5073225;28;20094;-83
2022/11/16 02:38:32;;;;;;;2.88;1.73;;;;;;;;;;5056427;28;20039;-84
2022/11/16 02:41:01;;;;;;;2.10;1.67;;;;;;;;;;5040315;28;20047;-84
2022/11/16 02:43:29;;;;;;;2.85;1.58;;;;;;;;;;5040182;28;20093;-83
2022/11/16 02:45:57;;;;;;;2.67;1.65;;;;;;;;;;5040527;28;20050;-84
2022/11/16 02:48:24;;;;;;;1.73;1.35;;;;;;;;;;5056697;28;20043;-84
2022/11/16 02:50:51;;;;;;;2.20;1.40;;;;;;;;;;5039798;28;20070;-84
2022/11/16 02:53:17;;;;;;;2.20;1.55;;;;;;;;;;5058009;28;20524;-83
2022/11/16 02:55:42;;;;;;;2.00;1.50;;;;;;;;;;5056719;28;20028;-83
2022/11/16 02:58:08;;;;;;;2.22;1.30;;;;;;;;;;5056159;28;20024;-83
2022/11/16 03:01:14;;;;;;;2.00;1.40;;;;;;;;;;5088852;28;20028;-84
2022/11/16 03:03:42;;;;;;;1.95;1.08;;;;;;;;;;5026247;28;20443;-83
2022/11/16 03:06:27;;;;;;;3.13;1.60;;;;;;;;;;5056484;28;20379;-84
2022/11/16 03:09:26;;;;;;;1.80;1.27;;;;;;;;;;5040122;28;20089;-83
2022/11/16 03:11:59;;;;;;;1.95;1.27;;;;;;;;;;5056410;28;20051;-84
2022/11/16 03:14:28;;;;;;;2.28;1.50;;;;;;;;;;5075861;28;20028;-85
2022/11/16 03:16:56;;;;;;;1.73;1.20;;;;;;;;;;5064617;28;20035;-84
2022/11/16 03:19:50;;;;;;;2.10;1.30;;;;;;;;;;5055988;28;20036;-84
2022/11/16 03:22:26;;;;;;;2.28;1.85;;;;;;;;;;5056806;28;20039;-83
2022/11/16 03:24:52;;;;;;;2.28;1.02;;;;;;;;;;5043564;28;20078;-83
2022/11/16 03:27:37;;;;;;;1.90;1.15;;;;;;;;;;5044268;28;20043;-83
2022/11/16 03:30:06;;;;;;;1.88;0.98;;;;;;;;;;5081209;28;20032;-83
2022/11/16 03:32:39;;;;;;;2.78;1.10;;;;;;;;;;5095092;28;20457;-83
2022/11/16 03:35:14;;;;;;;1.48;1.08;;;;;;;;;;5079718;28;20055;-84
2022/11/16 03:37:40;;;;;;;2.38;1.52;;;;;;;;;;5079588;28;20484;-84
2022/11/16 03:40:06;;;;;;;2.92;1.38;;;;;;;;;;5063306;28;20046;-84
2022/11/16 03:42:31;;;;;;;1.95;0.88;;;;;;;;;;5079734;28;20424;-84
2022/11/16 03:44:57;;;;;;;1.70;1.00;;;;;;;;;;5079436;28;20024;-83
2022/11/16 03:47:22;;;;;;;2.35;1.30;;;;;;;;;;5062836;28;20035;-83
2022/11/16 03:49:48;;;;;;;1.17;0.90;;;;;;;;;;5079389;28;20385;-83
2022/11/16 03:52:14;;;;;;;1.55;1.00;;;;;;;;;;5079610;28;20039;-83
2022/11/16 03:54:40;;;;;;;1.48;0.90;;;;;;;;;;5061906;28;20362;-83
2022/11/16 03:57:05;;;;;;;2.03;1.27;;;;;;;;;;5079351;28;20062;-84
2022/11/16 03:59:31;;;;;;;1.95;1.20;;;;;;;;;;5079309;28;20038;-84
2022/11/16 04:01:57;;;;;;;2.30;1.38;;;;;;;;;;5042183;28;20032;-83
2022/11/16 04:24:13;;;;;;;1.40;0.77;;;;;;;;;;5118701;27;20023;-84
2022/11/16 04:29:27;;;;;;;1.95;1.02;;;;;;;;;;5118831;27;20035;-84
2022/11/16 04:40:06;;;;;;;1.25;0.73;;;;;;;;;;5118861;27;20031;-84
2022/11/16 04:42:32;;;;;;;2.30;0.75;;;;;;;;;;5098948;27;20023;-83
2022/11/16 04:47:41;;;;;;;1.30;0.80;;;;;;;;;;5118138;27;20119;-83
2022/11/16 04:50:07;;;;;;;1.20;0.70;;;;;;;;;;5081933;27;20023;-83
2022/11/16 04:52:32;;;;;;;0.95;0.65;;;;;;;;;;5082054;27;20106;-83
2022/11/16 04:54:58;;;;;;;2.22;0.80;;;;;;;;;;5098413;27;20502;-83
2022/11/16 04:57:23;;;;;;;1.60;0.88;;;;;;;;;;5081217;27;20031;-83
2022/11/16 04:59:48;;;;;;;1.35;0.85;;;;;;;;;;5088570;28;20648;-84
2022/11/16 05:02:14;;;;;;;2.58;1.05;;;;;;;;;;5077723;28;20439;-83
2022/11/16 05:04:41;;;;;;;1.38;0.70;;;;;;;;;;5061328;28;20523;-83
2022/11/16 05:07:10;;;;;;;1.17;0.60;;;;;;;;;;5077797;28;20031;-83
2022/11/16 05:09:46;;;;;;;1.42;0.68;;;;;;;;;;5062303;28;20031;-84
2022/11/16 05:12:16;;;;;;;1.88;0.85;;;;;;;;;;5078251;28;20367;-84
2022/11/16 05:14:42;;;;;;;1.98;1.30;;;;;;;;;;5077454;28;20023;-84
2022/11/16 05:17:07;;;;;;;2.20;0.95;;;;;;;;;;5074910;28;20056;-83
2022/11/16 05:22:17;;;;;;;1.20;0.80;;;;;;;;;;5076881;28;20367;-83
2022/11/16 05:24:42;;;;;;;1.48;0.80;;;;;;;;;;5074182;28;20039;-83
2022/11/16 05:27:10;;;;;;;1.67;0.88;;;;;;;;;;5057423;28;20360;-84
2022/11/16 05:29:36;;;;;;;1.95;0.88;;;;;;;;;;5057392;28;20493;-84
2022/11/16 05:32:01;;;;;;;1.50;0.75;;;;;;;;;;5040618;28;20028;-83
2022/11/16 05:34:27;;;;;;;1.45;0.57;;;;;;;;;;5058079;28;20032;-83
2022/11/16 05:36:53;;;;;;;1.15;0.55;;;;;;;;;;5057310;28;20043;-83
2022/11/16 05:39:19;;;;;;;1.20;0.70;;;;;;;;;;5040694;28;20031;-84
2022/11/16 05:41:46;;;;;;;1.55;0.77;;;;;;;;;;5057014;28;20032;-84
2022/11/16 05:44:12;;;;;;;1.13;0.52;;;;;;;;;;5057578;28;20040;-84
2022/11/16 05:46:39;;;;;;;1.73;0.95;;;;;;;;;;5040654;28;20114;-84
2022/11/16 05:49:06;;;;;;;2.05;0.90;;;;;;;;;;5057353;28;20024;-83
2022/11/16 05:51:33;;;;;;;1.25;0.47;;;;;;;;;;5074194;28;20028;-84
2022/11/16 05:54:00;;;;;;;1.50;0.60;;;;;;;;;;5057682;28;20047;-83
2022/11/16 05:56:25;;;;;;;2.45;0.57;;;;;;;;;;5073396;28;20027;-84
2022/11/16 05:58:51;;;;;;;2.63;1.27;;;;;;;;;;5058390;28;20031;-84
2022/11/16 06:01:16;;;;;;;1.52;0.77;;;;;;;;;;5077159;28;20062;-84
2022/11/16 06:03:44;;;;;;;2.28;0.95;;;;;;;;;;5060384;28;20027;-84
2022/11/16 06:06:09;;;;;;;1.23;0.63;;;;;;;;;;5077081;28;20031;-84
2022/11/16 06:08:35;;;;;;;1.92;0.55;;;;;;;;;;5060563;28;20054;-84
2022/11/16 06:11:05;;;;;;;1.92;0.57;;;;;;;;;;5077160;28;20036;-85
2022/11/16 06:13:30;;;;;;;1.10;0.80;;;;;;;;;;5060290;28;20024;-83
2022/11/16 06:15:56;;;;;;;0.90;0.60;;;;;;;;;;5063879;28;20019;-84
2022/11/16 06:18:21;;;;;;;1.85;0.68;;;;;;;;;;5080499;28;20054;-83
2022/11/16 06:20:47;;;;;;;1.27;0.70;;;;;;;;;;5097260;28;20042;-83
2022/11/16 06:23:12;;;;;;;3.08;1.00;;;;;;;;;;5080085;28;20023;-83
2022/11/16 06:25:38;;;;;;;1.65;0.70;;;;;;;;;;5080660;28;20055;-85
2022/11/16 06:28:05;;;;;;;2.08;0.70;;;;;;;;;;5097308;28;20575;-85
2022/11/16 06:30:32;;;;;;;2.17;0.73;;;;;;;;;;5098190;28;20035;-86
2022/11/16 06:32:59;;;;;;;2.13;0.95;;;;;;;;;;5097419;28;20031;-85
2022/11/16 06:35:25;;;;;;;3.80;0.80;;;;;;;;;;5097431;28;20035;-86
2022/11/16 06:37:50;;;;;;;4.18;0.98;;;;;;;;;;5097311;28;20100;-83
2022/11/16 06:40:16;;;;;;;4.20;1.30;;;;;;;;;;5097299;28;20491;-84
2022/11/16 06:42:42;;;;;;;4.28;1.25;;;;;;;;;;5079823;28;20035;-84
2022/11/16 06:45:09;;;;;;;3.42;0.82;;;;;;;;;;5097289;28;20041;-83
2022/11/16 06:47:36;;;;;;;4.60;1.10;;;;;;;;;;5096975;28;20065;-85
2022/11/16 06:50:01;;;;;;;4.30;1.35;;;;;;;;;;5080003;28;20027;-84
2022/11/16 06:52:28;;;;;;;3.67;1.40;;;;;;;;;;5080923;28;20044;-83
2022/11/16 06:54:54;;;;;;;6.38;1.25;;;;;;;;;;5096849;28;20043;-83
2022/11/16 06:57:19;;;;;;;8.65;1.23;;;;;;;;;;5080628;27;20415;-83
2022/11/16 06:59:45;;;;;;;3.25;1.35;;;;;;;;;;5075341;28;20031;-83
2022/11/16 07:02:10;;;;;;;4.43;1.13;;;;;;;;;;5080140;28;20111;-83
2022/11/16 07:04:36;;;;;;;6.65;1.00;;;;;;;;;;5064170;28;20031;-84
2022/11/16 07:07:01;;;;;;;2.67;0.98;;;;;;;;;;5063688;28;20039;-84
2022/11/16 07:09:26;;;;;;;9.10;1.90;;;;;;;;;;5080218;28;20478;-84
2022/11/16 07:11:53;;;;;;;5.63;1.10;;;;;;;;;;5079965;28;20047;-84
2022/11/16 07:14:18;;;;;;;7.25;1.17;;;;;;;;;;5063209;28;20031;-85
2022/11/16 07:16:44;;;;;;;7.00;1.10;;;;;;;;;;5090671;27;20400;-82
2022/11/16 07:19:09;;;;;;;3.35;1.30;;;;;;;;;;5117125;27;20027;-81
2022/11/16 07:21:36;;;;;;;10.25;1.20;;;;;;;;;;5100963;27;20035;-82
2022/11/16 07:24:01;;;;;;;8.07;1.65;;;;;;;;;;5099909;27;20058;-83
2022/11/16 07:26:29;;;;;;;5.65;1.58;;;;;;;;;;5099697;27;20388;-82
2022/11/16 07:28:57;;;;;;;10.32;2.35;;;;;;;;;;5070197;28;20110;-82
2022/11/16 07:31:22;;;;;;;6.38;1.30;;;;;;;;;;5076556;28;20051;-82
2022/11/16 07:33:47;;;;;;;4.10;1.17;;;;;;;;;;5059397;28;20028;-83
2022/11/16 07:36:13;;;;;;;6.07;1.77;;;;;;;;;;5059435;28;20028;-82
2022/11/16 07:38:38;;;;;;;6.82;1.25;;;;;;;;;;5059747;28;20024;-83
2022/11/16 07:41:05;;;;;;;6.22;1.83;;;;;;;;;;5059321;28;20024;-82
2022/11/16 07:43:31;;;;;;;7.20;1.83;;;;;;;;;;5058275;28;20027;-82
2022/11/16 07:46:08;;;;;;;8.52;1.80;;;;;;;;;;5082991;28;20474;-83
2022/11/16 07:48:34;;;;;;;12.90;1.83;;;;;;;;;;5072989;28;20059;-82
2022/11/16 07:51:04;;;;;;;6.07;2.25;;;;;;;;;;5068153;28;20042;-82
2022/11/16 07:53:29;;;;;;;5.22;1.70;;;;;;;;;;5101749;28;20482;-82
2022/11/16 07:55:55;;;;;;;6.22;1.58;;;;;;;;;;5083529;28;20024;-83
2022/11/16 07:58:20;;;;;;;7.22;1.17;;;;;;;;;;5070271;28;20401;-83
2022/11/16 08:00:46;;;;;;;4.57;1.05;;;;;;;;;;5062492;28;20432;-83
2022/11/16 08:03:11;;;;;;;4.63;1.10;;;;;;;;;;5078723;28;20436;-83
2022/11/16 08:05:36;;;;;;;8.15;1.48;;;;;;;;;;5062506;28;20103;-82
2022/11/16 08:08:02;;;;;;;10.00;1.40;;;;;;;;;;5078509;28;20068;-84
2022/11/16 08:10:28;;;;;;;6.28;1.13;;;;;;;;;;5079238;28;20028;-83
2022/11/16 08:12:54;;;;;;;4.53;1.10;;;;;;;;;;5096011;28;20093;-83
2022/11/16 08:15:19;;;;;;;5.95;1.00;;;;;;;;;;5078780;28;20062;-83
2022/11/16 08:17:45;;;;;;;8.27;1.35;;;;;;;;;;5098395;27;20099;-82
2022/11/16 08:20:11;;;;;;;8.88;1.27;;;;;;;;;;5133476;27;20062;-83
2022/11/16 08:22:36;;;;;;;7.15;1.40;;;;;;;;;;5082196;27;20023;-87
2022/11/16 08:25:01;;;;;;;6.22;1.20;;;;;;;;;;5099530;27;20480;-83
2022/11/16 08:27:27;;;;;;;7.18;1.88;;;;;;;;;;5098454;27;20035;-82
2022/11/16 08:29:52;;;;;;;6.25;1.25;;;;;;;;;;5057598;28;20047;-86
2022/11/16 08:32:18;;;;;;;7.22;1.65;;;;;;;;;;5089751;28;20453;-86
2022/11/16 08:34:43;;;;;;;6.57;1.10;;;;;;;;;;5057650;28;20107;-86
2022/11/16 08:37:09;;;;;;;10.20;1.15;;;;;;;;;;5091760;28;20371;-82
2022/11/16 08:39:34;;;;;;;5.68;1.15;;;;;;;;;;5091193;28;20024;-81
2022/11/16 08:42:00;;;;;;;6.13;1.10;;;;;;;;;;5091353;28;20036;-81
2022/11/16 08:44:25;;;;;;;8.10;1.30;;;;;;;;;;5074253;28;20459;-82
2022/11/16 08:46:50;;;;;;;10.00;1.45;;;;;;;;;;5074072;28;20032;-82
2022/11/16 08:49:16;;;;;;;7.68;1.63;;;;;;;;;;5078398;28;20040;-82
2022/11/16 08:51:41;;;;;;;8.48;1.80;;;;;;;;;;5094865;28;20051;-82
2022/11/16 08:54:07;;;;;;;9.88;1.40;;;;;;;;;;5078121;28;20402;-82
2022/11/16 08:56:32;;;;;;;6.15;1.08;;;;;;;;;;5094968;28;20488;-82
2022/11/16 08:58:57;;;;;;;7.70;2.03;;;;;;;;;;5078369;28;20405;-82
2022/11/16 09:01:24;;;;;;;7.15;1.55;;;;;;;;;;5077836;28;20110;-82
2022/11/16 09:03:49;;;;;;;9.05;1.67;;;;;;;;;;5065959;28;20488;-82
2022/11/16 09:06:15;;;;;;;6.90;1.35;;;;;;;;;;5075027;28;20035;-82
2022/11/16 09:08:41;;;;;;;9.05;1.52;;;;;;;;;;5074775;28;20462;-82
2022/11/16 09:11:08;;;;;;;8.05;1.45;;;;;;;;;;5074053;28;20418;-82
2022/11/16 09:13:34;;;;;;;7.78;1.40;;;;;;;;;;5059071;28;20032;-82
2022/11/16 09:16:00;;;;;;;10.07;1.63;;;;;;;;;;5072629;28;20031;-81
2022/11/16 09:18:26;;;;;;;6.90;1.40;;;;;;;;;;5057683;28;20032;-82
2022/11/16 09:20:51;;;;;;;9.88;1.80;;;;;;;;;;5057012;28;20066;-82
2022/11/16 09:23:17;;;;;;;9.27;1.25;;;;;;;;;;5074090;28;20093;-81
2022/11/16 09:25:44;;;;;;;13.07;1.45;;;;;;;;;;5074037;28;20077;-81
2022/11/16 09:28:10;;;;;;;7.28;1.58;;;;;;;;;;5057053;28;20039;-81
2022/11/16 09:30:36;;;;;;;10.95;1.80;;;;;;;;;;5090919;28;20382;-81
2022/11/16 09:33:01;;;;;;;12.52;1.52;;;;;;;;;;5056508;28;20036;-82
2022/11/16 09:35:27;;;;;;;11.23;2.53;;;;;;;;;;5073629;28;20107;-81
2022/11/16 09:37:52;;;;;;;10.00;1.63;;;;;;;;;;5057281;28;20048;-81
2022/11/16 09:40:17;;;;;;;8.73;1.92;;;;;;;;;;5073881;28;20043;-81
2022/11/16 09:42:52;;;;;;;8.48;1.70;;;;;;;;;;5074030;28;20031;-81
2022/11/16 09:45:22;;;;;;;10.38;1.38;;;;;;;;;;5074208;28;20729;-81
2022/11/16 09:47:48;;;;;;;9.32;1.23;;;;;;;;;;5072155;28;20032;-81
2022/11/16 09:50:23;;;;;;;10.52;1.50;;;;;;;;;;5071824;28;20509;-81
2022/11/16 09:52:48;;;;;;;5.65;2.22;;;;;;;;;;5072542;28;20085;-81
2022/11/16 09:55:27;;;;;;;11.90;2.25;;;;;;;;;;5092162;28;20023;-81
2022/11/16 09:57:54;;;;;;;5.18;1.45;;;;;;;;;;5091243;28;20035;-81
2022/11/16 10:00:22;;;;;;;4.00;1.15;;;;;;;;;;5073169;28;20079;-81
2022/11/16 10:02:59;;;;;;;7.32;1.50;;;;;;;;;;5073677;28;20084;-81
2022/11/16 10:05:42;;;;;;;6.65;1.38;;;;;;;;;;5073397;28;20031;-81
2022/11/16 10:08:20;;;;;;;6.32;1.42;;;;;;;;;;5058912;28;20040;-81
2022/11/16 10:10:52;;;;;;;7.60;1.42;;;;;;;;;;5090057;28;20119;-81
2022/11/16 10:13:25;;;;;;;5.03;1.00;;;;;;;;;;5073717;28;20032;-81
2022/11/16 10:15:59;;;;;;;7.45;1.48;;;;;;;;;;5071307;28;20023;-81
2022/11/16 10:18:37;;;;;;;6.32;0.93;;;;;;;;;;5110850;28;20032;-82
2022/11/16 10:21:26;;;;;;;7.88;1.25;;;;;;;;;;5093801;28;20496;-82
2022/11/16 10:24:16;;;;;;;5.28;1.40;;;;;;;;;;5094241;28;20495;-81
2022/11/16 10:27:00;;;;;;;6.75;1.10;;;;;;;;;;5094365;28;20545;-81
2022/11/16 10:29:59;;;;;;;6.05;1.00;;;;;;;;;;5112042;28;20111;-81
2022/11/16 10:32:32;;;;;;;5.03;1.60;;;;;;;;;;5095758;28;20053;-82
2022/11/16 10:35:12;;;;;;;5.70;1.20;;;;;;;;;;5080787;28;20078;-81
2022/11/16 10:37:44;;;;;;;3.53;0.95;;;;;;;;;;5097510;28;20554;-81
2022/11/16 10:40:20;;;;;;;5.22;1.20;;;;;;;;;;5081080;28;20122;-81
2022/11/16 10:42:48;;;;;;;4.53;1.33;;;;;;;;;;5081181;28;20023;-81
2022/11/16 10:45:31;;;;;;;3.47;1.23;;;;;;;;;;5081043;28;20031;-81
2022/11/16 10:48:09;;;;;;;5.85;1.30;;;;;;;;;;5114316;28;20023;-81
2022/11/16 10:50:39;;;;;;;4.40;1.17;;;;;;;;;;5081706;28;20065;-81
2022/11/16 10:53:05;;;;;;;1.98;0.80;;;;;;;;;;5068011;28;20069;-81
2022/11/16 10:55:30;;;;;;;4.45;1.00;;;;;;;;;;5062558;28;20032;-81
2022/11/16 10:57:57;;;;;;;4.35;1.30;;;;;;;;;;5077110;28;20028;-81
2022/11/16 11:00:33;;;;;;;4.53;0.90;;;;;;;;;;5093735;28;20040;-81
2022/11/16 11:02:59;;;;;;;3.72;1.33;;;;;;;;;;5093155;28;20085;-81
2022/11/16 11:05:25;;;;;;;4.10;1.02;;;;;;;;;;5089753;28;20424;-81
2022/11/16 11:08:09;;;;;;;2.47;0.85;;;;;;;;;;5095475;28;20047;-81
2022/11/16 11:10:39;;;;;;;5.80;1.17;;;;;;;;;;5080512;28;20031;-81
2022/11/16 11:13:10;;;;;;;5.55;1.40;;;;;;;;;;5097382;28;20030;-81
2022/11/16 11:15:39;;;;;;;6.70;1.55;;;;;;;;;;5113984;28;20456;-81
2022/11/16 11:18:14;;;;;;;6.32;1.50;;;;;;;;;;5060190;28;20043;-81
2022/11/16 11:20:40;;;;;;;8.15;1.35;;;;;;;;;;5093632;28;20085;-81
2022/11/16 11:23:12;;;;;;;5.55;1.40;;;;;;;;;;5043044;28;20115;-82
2022/11/16 11:25:57;;;;;;;4.50;1.35;;;;;;;;;;5075452;28;20035;-81
2022/11/16 11:28:27;;;;;;;2.97;1.00;;;;;;;;;;5062059;28;20063;-81
2022/11/16 11:30:53;;;;;;;3.90;1.25;;;;;;;;;;5093607;28;20044;-80
2022/11/16 11:33:20;;;;;;;9.27;2.00;;;;;;;;;;5075894;28;20478;-81
2022/11/16 11:35:45;;;;;;;5.40;1.67;;;;;;;;;;5093456;28;20500;-81
2022/11/16 11:38:12;;;;;;;7.05;2.17;;;;;;;;;;5076007;28;20040;-81
2022/11/16 11:40:38;;;;;;;35.28;31.92;;;;;;;;;;5076379;28;20062;-81
2022/11/16 11:43:04;;;;;;;318.67;289.35;;;;;;;;;;5092354;28;20532;-83
2022/11/16 11:45:43;;;;;;;254.93;231.57;;;;;;;;;;5092863;28;20458;-83
2022/11/16 11:48:56;;;;;;;167.20;150.98;;;;;;;;;;5076516;28;20028;-82
2022/11/16 11:51:26;;;;;;;132.63;119.53;;;;;;;;;;5014929;28;20120;-82
2022/11/16 11:53:57;;;;;;;121.30;109.40;;;;;;;;;;5023242;28;20039;-82
2022/11/16 11:56:23;;;;;;;107.77;97.33;;;;;;;;;;5077744;27;20039;-83
2022/11/16 11:58:49;;;;;;;108.85;98.25;;;;;;;;;;5116818;27;20834;-82
2022/11/16 12:01:47;;;;;;;103.60;93.65;;;;;;;;;;5116643;27;20031;-82
2022/11/16 12:04:27;;;;;;;96.18;86.90;;;;;;;;;;5099271;27;20031;-83
2022/11/16 12:06:55;;;;;;;93.10;83.90;;;;;;;;;;5133672;27;20091;-82
2022/11/16 12:09:34;;;;;;;90.40;81.38;;;;;;;;;;5116057;27;20054;-82
2022/11/16 12:12:25;;;;;;;83.53;75.03;;;;;;;;;;5115669;27;20103;-82
2022/11/16 12:14:56;;;;;;;81.90;72.07;;;;;;;;;;5128863;27;20061;-82
2022/11/16 12:17:25;;;;;;;80.55;68.82;;;;;;;;;;5095550;28;20105;-82
2022/11/16 12:20:00;;;;;;;80.07;71.68;;;;;;;;;;5095809;28;20028;-82
2022/11/16 12:22:34;;;;;;;70.50;62.83;;;;;;;;;;5095710;28;20485;-82
2022/11/16 12:25:18;;;;;;;75.32;67.45;;;;;;;;;;5078750;28;20093;-82
2022/11/16 12:28:07;;;;;;;73.15;65.20;;;;;;;;;;5095317;28;20040;-82
2022/11/16 12:30:33;;;;;;;68.72;61.63;;;;;;;;;;5097981;28;20042;-82
2022/11/16 12:33:27;;;;;;;68.53;61.78;;;;;;;;;;5078176;28;20057;-82
2022/11/16 12:36:09;;;;;;;68.65;61.13;;;;;;;;;;5097430;28;20035;-83
2022/11/16 12:38:44;;;;;;;60.97;54.25;;;;;;;;;;5079718;28;20075;-82
2022/11/16 12:41:25;;;;;;;65.50;54.72;;;;;;;;;;5079100;28;20053;-82
2022/11/16 12:44:05;;;;;;;61.15;51.05;;;;;;;;;;5094907;28;20126;-82
2022/11/16 12:46:37;;;;;;;59.47;52.53;;;;;;;;;;5096436;28;20077;-82
2022/11/16 12:49:26;;;;;;;66.05;51.75;;;;;;;;;;5095544;28;20381;-82
2022/11/16 12:52:12;;;;;;;60.33;51.30;;;;;;;;;;5095132;28;20043;-82
2022/11/16 12:54:48;;;;;;;54.00;48.22;;;;;;;;;;5124941;27;20035;-82
2022/11/16 12:57:20;;;;;;;52.60;46.42;;;;;;;;;;5131930;27;20593;-82
2022/11/16 13:00:04;;;;;;;53.90;47.05;;;;;;;;;;5115056;27;20023;-82
2022/11/16 13:03:00;;;;;;;53.63;46.45;;;;;;;;;;5114309;27;20027;-82
2022/11/16 13:05:41;;;;;;;55.13;47.60;;;;;;;;;;5115645;27;20507;-82
2022/11/16 13:08:39;;;;;;;52.47;44.40;;;;;;;;;;5133941;27;20039;-81
2022/11/16 13:11:30;;;;;;;51.35;44.88;;;;;;;;;;5113671;27;20092;-82
2022/11/16 13:13:59;;;;;;;46.42;38.97;;;;;;;;;;5117204;27;20043;-82
2022/11/16 13:16:24;;;;;;;49.35;39.00;;;;;;;;;;5075625;28;20027;-82
2022/11/16 13:18:50;;;;;;;48.50;40.63;;;;;;;;;;5058050;28;20028;-82
2022/11/16 13:21:20;;;;;;;42.72;37.38;;;;;;;;;;5074052;28;20024;-81
2022/11/16 13:24:14;;;;;;;50.40;39.67;;;;;;;;;;5091229;28;20394;-82
2022/11/16 13:27:05;;;;;;;43.65;36.65;;;;;;;;;;5092340;28;20146;-82
2022/11/16 13:29:50;;;;;;;41.80;33.95;;;;;;;;;;5094298;28;20035;-82
2022/11/16 13:32:33;;;;;;;43.88;33.35;;;;;;;;;;5089537;28;20039;-81
2022/11/16 13:34:59;;;;;;;41.50;33.20;;;;;;;;;;5094830;28;20024;-82
2022/11/16 13:37:36;;;;;;;39.97;33.95;;;;;;;;;;5072966;28;20034;-81
2022/11/16 13:40:05;;;;;;;39.30;32.13;;;;;;;;;;5090699;28;20035;-81
2022/11/16 13:42:44;;;;;;;35.40;30.50;;;;;;;;;;5072996;28;20504;-82
2022/11/16 13:45:20;;;;;;;39.90;31.25;;;;;;;;;;5057645;28;20042;-81
2022/11/16 13:47:53;;;;;;;37.05;29.65;;;;;;;;;;5056527;28;20054;-81
2022/11/16 13:50:20;;;;;;;36.35;30.35;;;;;;;;;;5056927;28;20027;-83
2022/11/16 13:52:51;;;;;;;36.15;29.77;;;;;;;;;;5076956;28;20023;-81
2022/11/16 13:55:30;;;;;;;42.33;28.52;;;;;;;;;;5077591;28;20213;-81
2022/11/16 13:57:57;;;;;;;31.88;26.88;;;;;;;;;;5059977;28;20031;-81
2022/11/16 14:00:30;;;;;;;34.35;28.10;;;;;;;;;;5060576;28;20042;-81
2022/11/16 14:03:29;;;;;;;34.08;26.60;;;;;;;;;;5076995;28;20032;-82
2022/11/16 14:05:54;;;;;;;30.83;25.83;;;;;;;;;;5059350;28;20063;-82
2022/11/16 14:08:23;;;;;;;31.52;25.73;;;;;;;;;;5076064;28;20551;-81
2022/11/16 14:10:51;;;;;;;31.40;25.75;;;;;;;;;;5110721;28;20598;-81
2022/11/16 14:13:29;;;;;;;29.58;24.35;;;;;;;;;;5111014;28;20028;-80
2022/11/16 14:16:16;;;;;;;27.85;22.88;;;;;;;;;;5095835;28;20032;-81
2022/11/16 14:18:43;;;;;;;31.42;22.88;;;;;;;;;;5091256;28;20496;-81
2022/11/16 14:21:15;;;;;;;27.75;22.92;;;;;;;;;;5073830;28;20055;-80
2022/11/16 14:23:53;;;;;;;26.35;22.42;;;;;;;;;;5057152;28;20512;-81
2022/11/16 14:26:24;;;;;;;26.98;19.80;;;;;;;;;;5101460;28;20056;-81
2022/11/16 14:29:22;;;;;;;26.60;21.80;;;;;;;;;;5093318;28;20076;-81
2022/11/16 14:31:58;;;;;;;24.48;20.02;;;;;;;;;;5090223;28;20043;-81
2022/11/16 14:34:28;;;;;;;25.27;19.38;;;;;;;;;;5060900;28;20035;-81
2022/11/16 14:36:54;;;;;;;26.17;20.20;;;;;;;;;;5076737;28;20504;-81
2022/11/16 14:39:30;;;;;;;24.38;18.42;;;;;;;;;;5093198;28;20122;-81
2022/11/16 14:41:57;;;;;;;22.17;17.88;;;;;;;;;;5093028;28;20027;-80
2022/11/16 14:44:24;;;;;;;21.20;17.63;;;;;;;;;;5059938;28;20088;-81
2022/11/16 14:46:50;;;;;;;20.10;17.65;;;;;;;;;;5093724;28;20054;-81
2022/11/16 14:49:15;;;;;;;24.17;19.10;;;;;;;;;;5076822;28;20024;-81
2022/11/16 14:51:46;;;;;;;22.83;17.85;;;;;;;;;;5077046;28;20143;-81
2022/11/16 14:54:27;;;;;;;22.20;17.00;;;;;;;;;;5076170;28;20038;-81
2022/11/16 14:56:56;;;;;;;24.47;16.20;;;;;;;;;;5077757;28;20039;-82
2022/11/16 14:59:22;;;;;;;21.30;16.50;;;;;;;;;;5076641;28;20679;-81
2022/11/16 15:01:47;;;;;;;23.95;16.42;;;;;;;;;;5076570;28;20482;-81
2022/11/16 15:04:14;;;;;;;17.45;14.77;;;;;;;;;;5076073;28;20439;-81
2022/11/16 15:06:46;;;;;;;18.33;15.43;;;;;;;;;;5055507;28;20117;-81
2022/11/16 15:09:20;;;;;;;18.35;14.98;;;;;;;;;;5089493;28;20055;-81
2022/11/16 15:14:31;;;;;;;20.45;15.25;;;;;;;;;;5077885;28;20040;-81
2022/11/16 15:16:57;;;;;;;20.40;14.57;;;;;;;;;;5093328;28;20812;-82
2022/11/16 15:19:23;;;;;;;18.63;13.50;;;;;;;;;;5078505;28;20107;-81
2022/11/16 15:21:56;;;;;;;17.40;13.98;;;;;;;;;;5080082;28;20036;-81
2022/11/16 15:24:26;;;;;;;23.67;14.00;;;;;;;;;;5079707;28;20027;-81
2022/11/16 15:26:51;;;;;;;18.45;14.55;;;;;;;;;;5079498;28;20125;-82
2022/11/16 15:29:17;;;;;;;24.30;14.05;;;;;;;;;;5079246;28;20053;-82
2022/11/16 15:31:43;;;;;;;23.90;13.48;;;;;;;;;;5080537;28;20039;-84
2022/11/16 15:34:16;;;;;;;20.90;13.13;;;;;;;;;;5063058;28;20486;-86
2022/11/16 15:36:41;;;;;;;18.45;12.48;;;;;;;;;;5063753;28;20565;-86